createdAt,value
2023-04-24T00:01:51.389Z,34.78
2023-04-24T00:04:18.652Z,34.93
2023-04-24T00:06:50.589Z,34.99
2023-04-24T00:09:17.511Z,34.89
2023-04-24T00:11:44.351Z,35.20
2023-04-24T00:14:11.307Z,35.41
2023-04-24T00:16:38.204Z,35.53
2023-04-24T00:19:06.989Z,35.61
2023-04-24T00:21:33.885Z,35.63
2023-04-24T00:24:01.001Z,35.69
2023-04-24T00:26:28.004Z,35.76
2023-04-24T00:28:54.854Z,35.48
2023-04-24T00:31:22.153Z,35.30
2023-04-24T00:33:49.123Z,35.40
2023-04-24T00:36:16.130Z,35.44
2023-04-24T00:38:43.060Z,35.74
2023-04-24T00:41:10.556Z,35.53
2023-04-24T00:43:37.892Z,35.37
2023-04-24T00:46:04.857Z,35.39
2023-04-24T00:48:32.005Z,35.43
2023-04-24T00:50:59.888Z,35.28
2023-04-24T00:53:26.824Z,35.13
2023-04-24T00:55:53.779Z,35.04
2023-04-24T00:58:21.239Z,34.88
2023-04-24T01:00:48.503Z,35.04
2023-04-24T01:03:15.458Z,34.81
2023-04-24T01:05:42.810Z,34.75
2023-04-24T01:08:09.770Z,34.72
2023-04-24T01:10:36.661Z,34.70
2023-04-24T01:13:03.590Z,34.57
2023-04-24T01:15:30.640Z,34.63
2023-04-24T01:17:57.690Z,34.60
2023-04-24T01:20:25.789Z,34.56
2023-04-24T01:22:53.851Z,34.48
2023-04-24T01:25:24.014Z,34.34
2023-04-24T01:27:51.326Z,34.23
2023-04-24T01:30:18.212Z,34.05
2023-04-24T01:32:45.772Z,34.01
2023-04-24T01:35:12.778Z,34.02
2023-04-24T01:37:39.848Z,33.83
2023-04-24T01:40:08.284Z,33.82
2023-04-24T01:42:35.519Z,33.72
2023-04-24T01:45:04.400Z,33.89
2023-04-24T01:47:31.954Z,33.75
2023-04-24T01:49:59.292Z,33.84
2023-04-24T01:52:26.776Z,33.89
2023-04-24T01:54:54.851Z,33.83
2023-04-24T01:57:21.788Z,34.05
2023-04-24T01:59:48.735Z,34.32
2023-04-24T02:02:16.148Z,34.82
2023-04-24T02:04:43.662Z,34.88
2023-04-24T02:07:10.538Z,34.58
2023-04-24T02:09:37.483Z,34.57
2023-04-24T02:12:04.492Z,34.53
2023-04-24T02:14:31.378Z,34.34
2023-04-24T02:16:58.931Z,34.58
2023-04-24T02:19:25.881Z,34.77
2023-04-24T02:21:52.832Z,34.98
2023-04-24T02:24:19.782Z,35.81
2023-04-24T02:26:46.743Z,37.79
2023-04-24T02:29:13.681Z,39.36
2023-04-24T02:31:41.834Z,41.27
2023-04-24T02:34:08.914Z,42.37
2023-04-24T02:36:35.769Z,42.37
2023-04-24T02:39:02.714Z,42.04
2023-04-24T02:41:32.869Z,42.08
2023-04-24T02:43:59.990Z,42.35
2023-04-24T02:46:26.967Z,42.72
2023-04-24T02:48:54.003Z,43.06
2023-04-24T02:51:20.947Z,42.84
2023-04-24T02:53:47.965Z,42.74
2023-04-24T02:56:14.885Z,42.75
2023-04-24T02:58:41.916Z,42.61
2023-04-24T03:01:11.328Z,42.62
2023-04-24T03:03:41.533Z,42.71
2023-04-24T03:06:09.539Z,42.51
2023-04-24T03:08:36.548Z,41.96
2023-04-24T03:11:03.729Z,41.64
2023-04-24T03:13:30.610Z,41.55
2023-04-24T03:15:57.504Z,41.51
2023-04-24T03:18:24.474Z,41.33
2023-04-24T03:20:51.732Z,41.17
2023-04-24T03:23:18.890Z,41.19
2023-04-24T03:25:46.564Z,41.15
2023-04-24T03:28:13.810Z,41.27
2023-04-24T03:30:44.269Z,41.28
2023-04-24T03:33:11.607Z,40.96
2023-04-24T03:35:43.371Z,41.43
2023-04-24T03:38:11.466Z,41.46
2023-04-24T03:40:57.026Z,40.66
2023-04-24T03:43:36.059Z,40.22
2023-04-24T03:46:03.399Z,40.43
2023-04-24T03:48:31.691Z,41.63
2023-04-24T03:50:58.554Z,43.02
2023-04-24T03:53:25.828Z,44.06
2023-04-24T03:55:52.853Z,44.55
2023-04-24T03:58:19.781Z,45.78
2023-04-24T04:00:48.920Z,47.33
2023-04-24T04:03:34.672Z,48.60
2023-04-24T04:06:01.722Z,49.53
2023-04-24T04:08:28.629Z,50.27
2023-04-24T04:10:56.050Z,50.94
2023-04-24T04:13:23.806Z,51.38
2023-04-24T04:15:51.096Z,51.89
2023-04-24T04:18:18.332Z,52.15
2023-04-24T04:20:45.837Z,52.45
2023-04-24T04:23:13.958Z,52.61
2023-04-24T04:25:52.931Z,52.80
2023-04-24T04:28:22.399Z,52.96
2023-04-24T04:30:50.187Z,53.24
2023-04-24T04:33:17.489Z,53.37
2023-04-24T04:35:44.796Z,53.62
2023-04-24T04:38:12.698Z,53.80
2023-04-24T04:40:47.486Z,53.96
2023-04-24T04:43:16.007Z,53.98
2023-04-24T04:45:49.490Z,53.93
2023-04-24T04:48:39.132Z,53.89
2023-04-24T04:51:06.607Z,53.95
2023-04-24T04:53:33.478Z,54.05
2023-04-24T04:56:00.995Z,54.13
2023-04-24T04:58:34.745Z,53.97
2023-04-24T05:01:02.049Z,53.85
2023-04-24T05:03:32.886Z,53.71
2023-04-24T05:06:03.939Z,53.66
2023-04-24T05:08:32.935Z,53.47
2023-04-24T05:11:00.203Z,53.22
2023-04-24T05:13:38.155Z,53.03
2023-04-24T05:16:08.339Z,52.64
2023-04-24T05:18:35.378Z,51.96
2023-04-24T05:21:02.472Z,51.30
2023-04-24T05:23:29.394Z,51.01
2023-04-24T05:25:56.670Z,50.10
2023-04-24T05:28:23.562Z,49.07
2023-04-24T05:31:02.306Z,47.35
2023-04-24T05:33:29.606Z,45.44
2023-04-24T05:35:56.559Z,43.67
2023-04-24T05:38:23.509Z,42.12
2023-04-24T05:40:50.356Z,41.22
2023-04-24T05:43:17.233Z,40.29
2023-04-24T05:45:44.104Z,39.82
2023-04-24T05:48:11.075Z,39.22
2023-04-24T05:50:38.173Z,38.63
2023-04-24T05:53:05.533Z,37.99
2023-04-24T05:55:34.434Z,36.90
2023-04-24T05:58:02.121Z,35.65
2023-04-24T06:00:30.452Z,34.39
2023-04-24T06:03:01.721Z,33.26
2023-04-24T06:05:30.188Z,32.50
2023-04-24T06:07:57.376Z,31.93
2023-04-24T06:10:26.764Z,31.80
2023-04-24T06:12:53.810Z,31.59
2023-04-24T06:15:20.767Z,31.48
2023-04-24T06:17:53.394Z,31.00
2023-04-24T06:20:21.140Z,30.29
2023-04-24T06:22:48.195Z,29.85
2023-04-24T06:25:15.140Z,29.65
2023-04-24T06:27:41.993Z,29.39
2023-04-24T06:30:09.698Z,28.29
2023-04-24T06:32:36.671Z,26.80
2023-04-24T06:35:04.502Z,24.79
2023-04-24T06:37:33.343Z,22.64
2023-04-24T06:40:00.335Z,20.25
2023-04-24T06:42:27.278Z,18.57
2023-04-24T06:44:56.247Z,17.09
2023-04-24T06:47:23.350Z,15.65
2023-04-24T06:49:52.083Z,14.69
2023-04-24T06:52:19.387Z,13.96
2023-04-24T06:54:46.334Z,13.12
2023-04-24T06:57:13.386Z,12.42
2023-04-24T06:59:40.296Z,12.02
2023-04-24T07:02:07.616Z,11.55
2023-04-24T07:04:34.882Z,11.11
2023-04-24T07:07:02.049Z,10.86
2023-04-24T07:09:28.962Z,10.55
2023-04-24T07:11:57.534Z,10.43
2023-04-24T07:14:24.501Z,10.16
2023-04-24T07:16:51.367Z,9.87
2023-04-24T07:19:18.341Z,9.54
2023-04-24T07:21:45.254Z,9.54
2023-04-24T07:24:13.984Z,9.36
2023-04-24T07:26:41.510Z,9.41
2023-04-24T07:29:08.983Z,9.31
2023-04-24T07:31:36.175Z,9.16
2023-04-24T07:34:03.309Z,9.03
2023-04-24T07:36:30.232Z,8.77
2023-04-24T07:38:58.116Z,8.72
2023-04-24T07:41:25.486Z,8.47
2023-04-24T07:43:53.778Z,8.67
2023-04-24T07:46:21.420Z,9.18
2023-04-24T07:48:58.611Z,10.13
2023-04-24T07:51:33.799Z,11.34
2023-04-24T07:54:00.797Z,12.51
2023-04-24T07:56:28.144Z,13.50
2023-04-24T07:58:55.862Z,14.73
2023-04-24T08:01:22.722Z,15.90
2023-04-24T08:03:49.800Z,16.91
2023-04-24T08:06:16.846Z,17.43
2023-04-24T08:08:43.829Z,17.82
2023-04-24T08:11:11.016Z,18.47
2023-04-24T08:13:38.051Z,18.98
2023-04-24T08:16:05.257Z,18.98
2023-04-24T08:18:32.202Z,19.33
2023-04-24T08:21:02.645Z,19.75
2023-04-24T08:23:30.965Z,20.18
2023-04-24T08:25:58.932Z,20.35
2023-04-24T08:28:26.513Z,20.66
2023-04-24T08:30:55.965Z,20.97
2023-04-24T08:33:24.061Z,21.14
2023-04-24T08:35:51.194Z,21.53
2023-04-24T08:38:18.357Z,21.67
2023-04-24T08:40:47.264Z,21.80
2023-04-24T08:43:14.790Z,21.91
2023-04-24T08:45:41.868Z,21.88
2023-04-24T08:48:13.985Z,22.00
2023-04-24T08:50:47.173Z,21.97
2023-04-24T08:53:14.127Z,22.13
2023-04-24T08:55:40.991Z,22.45
2023-04-24T08:58:07.834Z,22.52
2023-04-24T09:00:34.675Z,22.64
2023-04-24T09:03:01.893Z,22.54
2023-04-24T09:05:28.934Z,22.36
2023-04-24T09:07:56.999Z,22.62
2023-04-24T09:10:25.110Z,23.02
2023-04-24T09:12:52.913Z,22.98
2023-04-24T09:15:21.514Z,23.04
2023-04-24T09:17:48.781Z,23.14
2023-04-24T09:20:15.813Z,23.24
2023-04-24T09:22:44.010Z,23.60
2023-04-24T09:25:13.735Z,23.42
2023-04-24T09:27:47.413Z,23.49
2023-04-24T09:30:14.977Z,23.29
2023-04-24T09:32:42.927Z,23.36
2023-04-24T09:35:11.337Z,23.45
2023-04-24T09:37:43.441Z,23.75
2023-04-24T09:40:21.589Z,23.68
2023-04-24T09:42:56.830Z,23.61
2023-04-24T09:45:28.200Z,23.34
2023-04-24T09:47:56.873Z,23.35
2023-04-24T09:50:24.115Z,23.38
2023-04-24T09:52:59.552Z,23.28
2023-04-24T09:55:26.655Z,23.29
2023-04-24T09:57:58.021Z,22.89
2023-04-24T10:00:27.207Z,22.55
2023-04-24T10:03:01.774Z,22.19
2023-04-24T10:05:33.748Z,22.12
2023-04-24T10:08:08.203Z,22.11
2023-04-24T10:10:39.470Z,22.00
2023-04-24T10:13:06.622Z,22.10
2023-04-24T10:15:33.626Z,22.23
2023-04-24T10:18:00.789Z,22.50
2023-04-24T10:20:30.556Z,22.81
2023-04-24T10:22:58.524Z,22.93
2023-04-24T10:25:27.220Z,23.18
2023-04-24T10:27:54.372Z,23.25
2023-04-24T10:30:21.341Z,23.22
2023-04-24T10:32:48.297Z,23.05
2023-04-24T10:35:16.008Z,22.89
2023-04-24T10:37:57.079Z,22.76
2023-04-24T10:40:29.208Z,22.80
2023-04-24T10:42:58.083Z,22.78
2023-04-24T10:45:26.204Z,22.56
2023-04-24T10:47:59.726Z,22.41
2023-04-24T10:50:28.303Z,22.34
2023-04-24T10:53:05.865Z,21.88
2023-04-24T10:55:53.639Z,22.00
2023-04-24T10:58:24.298Z,22.04
2023-04-24T11:00:59.436Z,22.22
2023-04-24T11:03:31.818Z,22.21
2023-04-24T11:06:03.974Z,22.09
2023-04-24T11:08:33.284Z,22.16
2023-04-24T11:11:05.264Z,22.09
2023-04-24T11:13:57.905Z,22.05
2023-04-24T11:16:27.827Z,21.57
2023-04-24T11:19:08.070Z,21.21
2023-04-24T11:21:44.088Z,21.02
2023-04-24T11:24:33.790Z,21.13
2023-04-24T11:27:00.682Z,21.38
2023-04-24T11:29:56.060Z,21.46
2023-04-24T11:32:37.949Z,21.86
2023-04-24T11:35:22.436Z,22.13
2023-04-24T11:40:21.707Z,22.15
2023-04-24T11:42:48.966Z,22.19
2023-04-24T11:45:23.206Z,22.39
2023-04-24T11:47:51.189Z,22.46
2023-04-24T11:50:19.906Z,22.71
2023-04-24T11:52:47.839Z,23.00
2023-04-24T11:55:17.743Z,23.20
2023-04-24T11:57:49.031Z,23.39
2023-04-24T12:00:21.575Z,23.22
2023-04-24T12:02:49.245Z,23.04
2023-04-24T12:05:32.743Z,23.21
2023-04-24T12:08:00.222Z,23.62
2023-04-24T12:10:28.925Z,24.03
2023-04-24T12:12:57.194Z,24.75
2023-04-24T12:15:24.359Z,25.05
2023-04-24T12:17:55.020Z,25.44
2023-04-24T12:20:29.348Z,25.65
2023-04-24T12:23:01.036Z,25.80
2023-04-24T12:25:29.570Z,25.98
2023-04-24T12:27:57.257Z,26.02
2023-04-24T12:30:29.104Z,26.32
2023-04-24T12:32:58.162Z,27.31
2023-04-24T12:35:26.641Z,28.43
2023-04-24T12:37:53.629Z,28.45
2023-04-24T12:40:21.635Z,28.12
2023-04-24T12:42:50.247Z,27.68
2023-04-24T12:45:18.029Z,27.32
2023-04-24T12:47:46.081Z,27.27
2023-04-24T12:50:14.937Z,27.57
2023-04-24T12:52:42.442Z,28.12
2023-04-24T12:55:10.430Z,28.60
2023-04-24T12:57:38.408Z,27.42
2023-04-24T13:00:07.199Z,27.09
2023-04-24T13:02:35.277Z,27.13
2023-04-24T13:05:02.784Z,27.18
2023-04-24T13:07:29.755Z,26.44
2023-04-24T13:09:57.035Z,26.25
2023-04-24T13:12:25.169Z,26.31
2023-04-24T13:14:52.229Z,26.35
2023-04-24T13:17:19.179Z,26.41
2023-04-24T13:19:46.747Z,26.69
2023-04-24T13:22:13.994Z,26.84
2023-04-24T13:24:43.922Z,26.99
2023-04-24T13:27:10.914Z,27.10
2023-04-24T13:29:38.530Z,27.12
2023-04-24T13:32:05.733Z,27.03
2023-04-24T13:34:32.753Z,27.00
2023-04-24T13:36:59.843Z,26.84
2023-04-24T13:39:27.227Z,26.90
2023-04-24T13:41:54.833Z,27.12
2023-04-24T13:44:21.996Z,27.13
2023-04-24T13:46:49.795Z,27.18
2023-04-24T13:49:16.831Z,27.27
2023-04-24T13:51:43.766Z,27.36
2023-04-24T13:54:10.867Z,27.65
2023-04-24T13:56:37.774Z,27.82
2023-04-24T13:59:04.610Z,27.81
2023-04-24T14:01:32.018Z,27.82
2023-04-24T14:03:59.187Z,27.99
2023-04-24T14:06:27.000Z,28.16
2023-04-24T14:08:54.014Z,28.41
2023-04-24T14:11:21.119Z,28.31
2023-04-24T14:13:48.066Z,28.37
2023-04-24T14:16:15.778Z,28.55
2023-04-24T14:18:42.785Z,28.70
2023-04-24T14:21:09.932Z,28.80
2023-04-24T14:23:36.940Z,28.71
2023-04-24T14:26:03.745Z,28.56
2023-04-24T14:28:30.661Z,28.45
2023-04-24T14:30:57.518Z,28.27
2023-04-24T14:33:24.470Z,28.09
2023-04-24T14:35:51.339Z,28.06
2023-04-24T14:38:18.206Z,28.01
2023-04-24T14:41:05.570Z,28.24
2023-04-24T14:43:32.056Z,28.66
2023-04-24T14:45:59.088Z,28.89
2023-04-24T14:48:26.160Z,29.12
2023-04-24T14:50:52.996Z,29.24
2023-04-24T14:53:20.059Z,29.40
2023-04-24T14:55:47.016Z,29.61
2023-04-24T14:58:13.961Z,29.80
2023-04-24T15:00:41.217Z,29.92
2023-04-24T15:03:08.737Z,30.07
2023-04-24T15:05:36.994Z,30.03
2023-04-24T15:08:04.296Z,29.77
2023-04-24T15:10:31.192Z,29.72
2023-04-24T15:12:58.067Z,29.62
2023-04-24T15:15:25.638Z,29.58
2023-04-24T15:17:58.035Z,29.50
2023-04-24T15:20:25.103Z,29.25
2023-04-24T15:22:52.269Z,29.25
2023-04-24T15:25:19.417Z,29.36
2023-04-24T15:27:47.317Z,29.36
2023-04-24T15:30:15.142Z,29.39
2023-04-24T15:32:42.328Z,29.38
2023-04-24T15:35:10.528Z,29.35
2023-04-24T15:37:43.906Z,29.33
2023-04-24T15:40:14.460Z,29.19
2023-04-24T15:42:42.339Z,29.31
2023-04-24T15:45:13.008Z,29.33
2023-04-24T15:47:42.600Z,29.21
2023-04-24T15:50:12.763Z,29.03
2023-04-24T15:52:41.221Z,28.97
2023-04-24T15:55:08.451Z,29.06
2023-04-24T15:57:38.654Z,29.18
2023-04-24T16:00:07.510Z,29.38
2023-04-24T16:02:40.973Z,29.35
2023-04-24T16:05:12.683Z,29.44
2023-04-24T16:07:42.089Z,29.45
2023-04-24T16:10:09.448Z,29.65
2023-04-24T16:12:36.595Z,29.65
2023-04-24T16:15:04.145Z,29.90
2023-04-24T16:17:31.137Z,29.99
2023-04-24T16:19:58.086Z,30.10
2023-04-24T16:22:25.291Z,29.92
2023-04-24T16:24:52.358Z,29.84
2023-04-24T16:27:19.271Z,29.89
2023-04-24T16:29:48.434Z,29.83
2023-04-24T16:32:15.415Z,29.91
2023-04-24T16:34:42.384Z,29.96
2023-04-24T16:37:09.564Z,29.97
2023-04-24T16:39:44.098Z,29.77
2023-04-24T16:42:13.461Z,29.85
2023-04-24T16:44:43.142Z,30.07
2023-04-24T16:47:11.545Z,30.11
2023-04-24T16:49:38.572Z,30.03
2023-04-24T16:52:05.494Z,29.93
2023-04-24T16:54:34.800Z,30.05
2023-04-24T16:57:01.939Z,30.14
2023-04-24T16:59:29.461Z,30.24
2023-04-24T17:01:56.535Z,30.37
2023-04-24T17:04:23.531Z,30.41
2023-04-24T17:06:50.703Z,30.45
2023-04-24T17:09:17.635Z,30.36
2023-04-24T17:11:44.565Z,30.32
2023-04-24T17:14:11.581Z,30.35
2023-04-24T17:16:38.647Z,30.30
2023-04-24T17:19:05.925Z,30.25
2023-04-24T17:21:33.205Z,30.32
2023-04-24T17:24:00.091Z,30.20
2023-04-24T17:26:27.704Z,30.22
2023-04-24T17:28:55.397Z,30.44
2023-04-24T17:31:23.430Z,30.32
2023-04-24T17:33:50.843Z,30.40
2023-04-24T17:36:17.683Z,30.32
2023-04-24T17:38:44.569Z,30.37
2023-04-24T17:41:11.476Z,30.33
2023-04-24T17:43:38.358Z,30.41
2023-04-24T17:46:07.581Z,30.51
2023-04-24T17:48:35.551Z,30.55
2023-04-24T17:51:02.484Z,30.63
2023-04-24T17:53:29.450Z,30.78
2023-04-24T17:55:59.469Z,30.86
2023-04-24T17:58:26.943Z,30.84
2023-04-24T18:00:53.869Z,30.97
2023-04-24T18:03:21.005Z,30.98
2023-04-24T18:05:48.115Z,30.95
2023-04-24T18:08:14.933Z,31.03
2023-04-24T18:10:44.750Z,31.05
2023-04-24T18:13:11.924Z,31.11
2023-04-24T18:15:42.189Z,31.16
2023-04-24T18:18:11.176Z,31.35
2023-04-24T18:20:38.205Z,31.40
2023-04-24T18:23:05.530Z,31.43
2023-04-24T18:25:32.418Z,31.52
2023-04-24T18:27:59.389Z,31.58
2023-04-24T18:30:27.057Z,31.81
2023-04-24T18:32:54.137Z,32.04
2023-04-24T18:35:21.657Z,32.40
2023-04-24T18:37:49.022Z,32.70
2023-04-24T18:40:16.373Z,33.02
2023-04-24T18:42:43.335Z,33.28
2023-04-24T18:45:13.830Z,33.49
2023-04-24T18:47:42.020Z,33.78
2023-04-24T18:50:09.604Z,33.98
2023-04-24T18:52:36.400Z,34.21
2023-04-24T18:55:04.222Z,34.43
2023-04-24T18:57:31.119Z,34.54
2023-04-24T18:59:57.976Z,34.71
2023-04-24T19:04:51.764Z,34.99
2023-04-24T19:07:19.855Z,34.97
2023-04-24T19:09:46.712Z,35.17
2023-04-24T19:12:13.591Z,35.26
2023-04-24T19:14:40.492Z,35.43
2023-04-24T19:17:10.181Z,35.67
2023-04-24T19:19:37.148Z,35.79
2023-04-24T19:22:04.103Z,35.94
2023-04-24T19:24:33.403Z,35.94
2023-04-24T19:27:00.639Z,36.07
2023-04-24T19:29:27.510Z,36.29
2023-04-24T19:31:55.859Z,36.37
2023-04-24T19:34:22.745Z,36.41
2023-04-24T19:36:49.902Z,36.62
2023-04-24T19:39:16.829Z,36.63
2023-04-24T19:41:43.707Z,36.76
2023-04-24T19:44:10.734Z,36.92
2023-04-24T19:46:39.908Z,37.04
2023-04-24T19:49:06.905Z,37.14
2023-04-24T19:51:33.841Z,37.24
2023-04-24T19:54:01.265Z,37.25
2023-04-24T19:56:28.104Z,37.20
2023-04-24T19:58:55.235Z,37.23
2023-04-24T20:01:22.108Z,37.24
2023-04-24T20:03:49.157Z,37.23
2023-04-24T20:06:16.228Z,37.29
2023-04-24T20:08:43.062Z,37.27
2023-04-24T20:11:10.216Z,37.30
2023-04-24T20:13:37.078Z,37.47
2023-04-24T20:16:04.680Z,37.75
2023-04-24T20:18:31.566Z,38.08
2023-04-24T20:20:59.963Z,38.06
2023-04-24T20:23:27.134Z,38.25
2023-04-24T20:25:59.950Z,38.65
2023-04-24T20:28:30.506Z,39.03
2023-04-24T20:30:58.405Z,38.66
2023-04-24T20:33:26.173Z,38.68
2023-04-24T20:35:52.977Z,38.64
2023-04-24T20:38:19.902Z,38.75
2023-04-24T20:40:57.633Z,38.79
2023-04-24T20:43:28.843Z,39.02
2023-04-24T20:45:58.208Z,39.14
2023-04-24T20:48:26.730Z,39.26
2023-04-24T20:50:54.112Z,39.37
2023-04-24T20:53:23.964Z,39.53
2023-04-24T20:55:50.930Z,39.79
2023-04-24T20:58:24.552Z,40.16
2023-04-24T21:00:51.675Z,40.41
2023-04-24T21:03:18.768Z,40.50
2023-04-24T21:05:45.930Z,40.76
2023-04-24T21:08:12.802Z,40.96
2023-04-24T21:10:39.667Z,41.02
2023-04-24T21:13:06.536Z,41.11
2023-04-24T21:15:33.752Z,41.18
2023-04-24T21:18:01.407Z,41.29
2023-04-24T21:20:28.299Z,41.39
2023-04-24T21:22:55.148Z,41.56
2023-04-24T21:25:22.050Z,41.62
2023-04-24T21:27:48.916Z,41.66
2023-04-24T21:30:15.745Z,41.69
2023-04-24T21:32:42.742Z,41.75
2023-04-24T21:35:09.856Z,41.79
2023-04-24T21:37:37.973Z,41.87
2023-04-24T21:40:05.142Z,41.90
2023-04-24T21:42:32.045Z,42.06
2023-04-24T21:44:58.885Z,42.05
2023-04-24T21:47:25.808Z,42.16
2023-04-24T21:49:52.771Z,42.23
2023-04-24T21:52:20.300Z,42.33
2023-04-24T21:54:47.214Z,42.38
2023-04-24T21:57:14.201Z,42.42
2023-04-24T21:59:41.062Z,42.47
2023-04-24T22:02:07.899Z,42.54
2023-04-24T22:04:35.050Z,42.54
2023-04-24T22:07:02.009Z,42.60
2023-04-24T22:09:28.900Z,42.62
2023-04-24T22:11:56.966Z,42.64
2023-04-24T22:14:23.878Z,42.64
2023-04-24T22:16:50.739Z,42.71
2023-04-24T22:19:17.782Z,42.73
2023-04-24T22:21:45.006Z,42.79
2023-04-24T22:24:11.818Z,42.85
2023-04-24T22:26:38.715Z,42.91
2023-04-24T22:29:05.707Z,43.00
2023-04-24T22:31:32.752Z,43.05
2023-04-24T22:33:59.752Z,43.12
2023-04-24T22:36:27.210Z,43.10
2023-04-24T22:38:54.625Z,43.19
2023-04-24T22:41:21.860Z,43.20
2023-04-24T22:43:48.865Z,43.22
2023-04-24T22:46:16.602Z,43.27
2023-04-24T22:48:44.162Z,43.25
2023-04-24T22:51:11.149Z,43.19
2023-04-24T22:53:37.971Z,43.19
2023-04-24T22:56:05.134Z,43.27
2023-04-24T22:58:32.379Z,43.39
2023-04-24T23:00:59.207Z,43.52
2023-04-24T23:03:26.477Z,43.56
2023-04-24T23:05:53.580Z,43.69
2023-04-24T23:08:20.429Z,43.70
2023-04-24T23:10:47.816Z,43.77
2023-04-24T23:13:14.657Z,43.84
2023-04-24T23:15:42.223Z,43.97
2023-04-24T23:18:09.340Z,43.93
2023-04-24T23:20:36.190Z,44.12
2023-04-24T23:23:02.983Z,44.14
2023-04-24T23:25:29.872Z,44.19
2023-04-24T23:27:56.783Z,44.20
2023-04-24T23:30:23.637Z,44.33
2023-04-24T23:32:50.521Z,44.40
2023-04-24T23:35:17.365Z,44.42
2023-04-24T23:37:44.257Z,44.56
2023-04-24T23:40:11.287Z,44.64
2023-04-24T23:42:38.145Z,44.74
2023-04-24T23:45:05.590Z,44.79
2023-04-24T23:47:32.474Z,44.88
2023-04-24T23:49:59.393Z,44.99
2023-04-24T23:52:26.345Z,45.07
2023-04-24T23:54:53.269Z,45.22
2023-04-24T23:57:20.097Z,45.24
2023-04-24T23:59:46.924Z,45.21
